createdAt,value
2023-05-07T00:01:09.526Z,13.90
2023-05-07T00:03:37.601Z,15.57
2023-05-07T00:06:07.687Z,15.33
2023-05-07T00:08:35.599Z,15.33
2023-05-07T00:11:06.233Z,13.80
2023-05-07T00:13:36.388Z,13.30
2023-05-07T00:16:04.320Z,12.30
2023-05-07T00:18:32.156Z,11.60
2023-05-07T00:21:00.490Z,10.77
2023-05-07T00:23:29.593Z,10.80
2023-05-07T00:25:59.039Z,10.60
2023-05-07T00:28:27.006Z,9.47
2023-05-07T00:30:55.343Z,9.40
2023-05-07T00:33:23.226Z,9.90
2023-05-07T00:35:51.113Z,9.40
2023-05-07T00:38:18.953Z,8.47
2023-05-07T00:40:48.784Z,8.50
2023-05-07T00:43:17.618Z,8.93
2023-05-07T00:45:45.558Z,8.77
2023-05-07T00:48:13.443Z,7.60
2023-05-07T00:50:41.350Z,7.37
2023-05-07T00:53:09.680Z,8.17
2023-05-07T00:55:37.948Z,8.17
2023-05-07T00:58:07.557Z,9.60
2023-05-07T01:00:35.637Z,11.80
2023-05-07T01:03:03.939Z,10.37
2023-05-07T01:05:32.650Z,13.73
2023-05-07T01:08:01.567Z,12.30
2023-05-07T01:10:31.521Z,13.00
2023-05-07T01:13:00.649Z,12.27
2023-05-07T01:15:29.851Z,13.27
2023-05-07T01:17:57.562Z,12.80
2023-05-07T01:20:25.543Z,14.73
2023-05-07T01:22:55.426Z,14.30
2023-05-07T01:25:24.037Z,14.27
2023-05-07T01:27:51.950Z,14.77
2023-05-07T01:30:20.372Z,14.23
2023-05-07T01:32:54.302Z,14.30
2023-05-07T01:35:24.976Z,14.83
2023-05-07T01:37:52.942Z,14.70
2023-05-07T01:40:22.908Z,14.30
2023-05-07T01:42:50.597Z,13.40
2023-05-07T01:45:18.769Z,14.50
2023-05-07T01:47:46.507Z,14.47
2023-05-07T01:50:14.730Z,16.17
2023-05-07T01:52:42.875Z,16.03
2023-05-07T01:55:11.641Z,14.90
2023-05-07T01:57:41.290Z,14.83
2023-05-07T02:00:10.866Z,15.00
2023-05-07T02:02:40.047Z,15.17
2023-05-07T02:05:08.721Z,14.90
2023-05-07T02:07:36.661Z,14.10
2023-05-07T02:10:05.534Z,14.03
2023-05-07T02:12:33.365Z,14.00
2023-05-07T02:15:04.829Z,14.33
2023-05-07T02:17:33.988Z,13.03
2023-05-07T02:20:01.884Z,12.63
2023-05-07T02:22:30.177Z,13.20
2023-05-07T02:24:58.087Z,14.30
2023-05-07T02:27:26.366Z,12.70
2023-05-07T02:29:54.326Z,13.30
2023-05-07T02:32:24.213Z,12.50
2023-05-07T02:34:53.756Z,13.30
2023-05-07T02:37:21.764Z,13.20
2023-05-07T02:39:49.638Z,12.83
2023-05-07T02:42:18.011Z,11.60
2023-05-07T02:44:45.837Z,12.20
2023-05-07T02:47:14.708Z,12.63
2023-05-07T02:49:44.024Z,11.23
2023-05-07T02:52:12.299Z,11.70
2023-05-07T02:54:40.736Z,11.53
2023-05-07T02:57:08.638Z,11.30
2023-05-07T02:59:37.030Z,10.70
2023-05-07T03:02:05.304Z,10.73
2023-05-07T03:04:33.381Z,10.77
2023-05-07T03:07:03.041Z,11.67
2023-05-07T03:09:31.027Z,11.50
2023-05-07T03:11:59.488Z,10.77
2023-05-07T03:14:27.932Z,10.60
2023-05-07T03:16:56.038Z,10.53
2023-05-07T03:19:24.418Z,10.33
2023-05-07T03:21:52.447Z,10.20
2023-05-07T03:24:22.202Z,9.93
2023-05-07T03:26:50.609Z,10.17
2023-05-07T03:29:18.681Z,10.20
2023-05-07T03:31:46.780Z,9.80
2023-05-07T03:34:14.851Z,9.83
2023-05-07T03:36:43.039Z,9.47
2023-05-07T03:39:11.609Z,9.60
2023-05-07T03:41:41.010Z,9.93
2023-05-07T03:44:08.916Z,10.10
2023-05-07T03:46:36.822Z,9.80
2023-05-07T03:49:05.170Z,9.40
2023-05-07T03:51:33.086Z,9.63
2023-05-07T03:54:01.037Z,9.37
2023-05-07T03:56:29.370Z,8.80
2023-05-07T03:58:58.594Z,8.93
2023-05-07T04:01:27.266Z,9.33
2023-05-07T04:03:55.723Z,8.60
2023-05-07T04:06:23.658Z,9.37
2023-05-07T04:08:51.586Z,10.17
2023-05-07T04:11:19.954Z,9.80
2023-05-07T04:13:48.308Z,8.60
2023-05-07T04:16:18.183Z,8.63
2023-05-07T04:18:45.993Z,8.70
2023-05-07T04:21:17.559Z,8.80
2023-05-07T04:23:45.602Z,8.43
2023-05-07T04:26:14.006Z,8.40
2023-05-07T04:28:42.621Z,8.67
2023-05-07T04:31:10.703Z,8.43
2023-05-07T04:33:40.305Z,8.60
2023-05-07T04:36:09.191Z,8.53
2023-05-07T04:38:37.237Z,7.13
2023-05-07T04:41:06.294Z,7.53
2023-05-07T04:43:34.345Z,7.73
2023-05-07T04:46:02.953Z,7.80
2023-05-07T04:48:31.100Z,8.10
2023-05-07T04:51:00.348Z,7.60
2023-05-07T04:53:28.154Z,7.80
2023-05-07T04:55:59.328Z,7.87
2023-05-07T04:58:27.554Z,7.80
2023-05-07T05:00:55.786Z,7.07
2023-05-07T05:03:23.742Z,7.43
2023-05-07T05:05:52.599Z,7.33
2023-05-07T05:08:21.991Z,7.77
2023-05-07T05:10:51.253Z,7.90
2023-05-07T05:13:19.768Z,6.60
2023-05-07T05:15:47.974Z,7.27
2023-05-07T05:18:16.408Z,6.87
2023-05-07T05:20:45.039Z,7.40
2023-05-07T05:23:13.468Z,6.83
2023-05-07T05:25:43.368Z,7.10
2023-05-07T05:28:11.318Z,7.33
2023-05-07T05:30:39.637Z,6.43
2023-05-07T05:33:08.358Z,7.00
2023-05-07T05:35:37.185Z,6.70
2023-05-07T05:38:05.200Z,6.43
2023-05-07T05:40:33.536Z,6.67
2023-05-07T05:43:03.424Z,7.17
2023-05-07T05:45:31.473Z,7.20
2023-05-07T05:47:59.867Z,6.47
2023-05-07T05:50:27.792Z,5.93
2023-05-07T05:52:55.505Z,5.87
2023-05-07T05:55:24.218Z,6.47
2023-05-07T05:57:52.138Z,5.53
2023-05-07T06:00:23.721Z,6.40
2023-05-07T06:02:51.969Z,6.10
2023-05-07T06:05:20.120Z,6.40
2023-05-07T06:07:48.109Z,6.27
2023-05-07T06:10:15.962Z,6.03
2023-05-07T06:12:44.419Z,6.20
2023-05-07T06:15:13.347Z,5.90
2023-05-07T06:17:42.787Z,5.93
2023-05-07T06:20:11.877Z,5.97
2023-05-07T06:22:39.759Z,6.40
2023-05-07T06:25:08.693Z,5.70
2023-05-07T06:27:36.732Z,5.37
2023-05-07T06:30:05.176Z,5.70
2023-05-07T06:32:33.105Z,5.70
2023-05-07T06:35:02.653Z,5.40
2023-05-07T06:37:30.545Z,5.23
2023-05-07T06:40:00.082Z,5.37
2023-05-07T06:42:28.518Z,5.20
2023-05-07T06:44:56.744Z,5.43
2023-05-07T06:47:24.764Z,5.73
2023-05-07T06:49:52.735Z,5.73
2023-05-07T06:52:22.160Z,4.77
2023-05-07T06:54:50.494Z,5.10
2023-05-07T06:57:18.475Z,5.20
2023-05-07T06:59:48.648Z,5.07
2023-05-07T07:02:18.187Z,5.90
2023-05-07T07:04:46.872Z,5.67
2023-05-07T07:07:14.817Z,4.80
2023-05-07T07:09:44.122Z,5.40
2023-05-07T07:12:11.986Z,5.17
2023-05-07T07:14:40.061Z,5.00
2023-05-07T07:17:07.921Z,5.00
2023-05-07T07:19:35.954Z,5.30
2023-05-07T07:22:04.241Z,4.67
2023-05-07T07:24:32.230Z,4.47
2023-05-07T07:27:02.068Z,5.40
2023-05-07T07:29:30.031Z,5.13
2023-05-07T07:31:58.411Z,5.00
2023-05-07T07:34:26.542Z,4.30
2023-05-07T07:36:54.398Z,4.50
2023-05-07T07:39:22.350Z,4.13
2023-05-07T07:41:50.283Z,4.70
2023-05-07T07:44:19.657Z,4.63
2023-05-07T07:46:47.542Z,5.20
2023-05-07T07:49:15.624Z,4.87
2023-05-07T07:51:43.657Z,5.07
2023-05-07T07:54:11.759Z,4.37
2023-05-07T07:56:39.848Z,4.83
2023-05-07T07:59:07.764Z,5.03
2023-05-07T08:01:37.808Z,4.30
2023-05-07T08:04:06.741Z,5.27
2023-05-07T08:06:34.964Z,4.47
2023-05-07T08:09:03.327Z,4.03
2023-05-07T08:11:31.525Z,4.40
2023-05-07T08:13:59.301Z,4.33
2023-05-07T08:16:27.550Z,4.80
2023-05-07T08:18:58.844Z,4.17
2023-05-07T08:21:27.256Z,5.13
2023-05-07T08:23:55.567Z,4.50
2023-05-07T08:26:23.686Z,4.70
2023-05-07T08:28:51.767Z,4.83
2023-05-07T08:31:20.372Z,4.23
2023-05-07T08:33:48.300Z,5.10
2023-05-07T08:36:17.685Z,4.90
2023-05-07T08:38:46.750Z,4.57
2023-05-07T08:41:15.122Z,4.00
2023-05-07T08:43:43.564Z,4.20
2023-05-07T08:46:11.550Z,4.53
2023-05-07T08:48:39.255Z,4.60
2023-05-07T08:51:09.209Z,3.93
2023-05-07T08:53:38.640Z,5.00
2023-05-07T08:56:07.423Z,4.23
2023-05-07T08:58:35.460Z,4.30
2023-05-07T09:01:03.768Z,3.90
2023-05-07T09:03:33.908Z,4.30
2023-05-07T09:06:02.229Z,4.07
2023-05-07T09:08:30.070Z,4.43
2023-05-07T09:10:59.952Z,4.50
2023-05-07T09:13:28.500Z,4.17
2023-05-07T09:15:56.543Z,4.20
2023-05-07T09:18:26.444Z,4.50
2023-05-07T09:20:54.284Z,4.43
2023-05-07T09:23:22.744Z,4.60
2023-05-07T09:25:50.583Z,4.03
2023-05-07T09:28:20.114Z,4.50
2023-05-07T09:30:48.323Z,3.90
2023-05-07T09:33:16.466Z,4.43
2023-05-07T09:35:44.678Z,3.97
2023-05-07T09:38:12.726Z,4.20
2023-05-07T09:40:41.298Z,4.20
2023-05-07T09:43:13.012Z,4.00
2023-05-07T09:45:43.059Z,4.03
2023-05-07T09:48:11.186Z,4.57
2023-05-07T09:50:42.466Z,3.93
2023-05-07T09:53:10.615Z,4.10
2023-05-07T09:55:38.710Z,4.57
2023-05-07T09:58:06.608Z,4.50
2023-05-07T10:00:34.695Z,4.30
2023-05-07T10:03:04.093Z,3.90
2023-05-07T10:05:32.560Z,3.80
2023-05-07T10:08:03.314Z,4.20
2023-05-07T10:10:35.535Z,3.70
2023-05-07T10:13:06.947Z,3.97
2023-05-07T10:15:35.610Z,4.20
2023-05-07T10:18:05.444Z,4.30
2023-05-07T10:20:41.434Z,4.10
2023-05-07T10:23:09.500Z,3.93
2023-05-07T10:25:37.604Z,3.33
2023-05-07T10:28:08.406Z,3.90
2023-05-07T10:30:40.674Z,3.67
2023-05-07T10:33:11.918Z,3.77
2023-05-07T10:35:41.632Z,4.17
2023-05-07T10:38:09.895Z,3.70
2023-05-07T10:40:37.936Z,4.57
2023-05-07T10:43:09.470Z,3.83
2023-05-07T10:45:39.194Z,3.70
2023-05-07T10:50:44.292Z,3.60
2023-05-07T10:53:32.991Z,3.97
2023-05-07T10:56:26.673Z,3.80
2023-05-07T10:58:55.008Z,3.50
2023-05-07T11:01:55.988Z,3.70
2023-05-07T11:04:29.010Z,3.73
2023-05-07T11:07:28.359Z,3.93
2023-05-07T11:10:14.369Z,3.87
2023-05-07T11:12:56.118Z,4.30
2023-05-07T11:15:42.991Z,4.23
2023-05-07T11:18:11.796Z,4.40
2023-05-07T11:20:49.014Z,4.33
2023-05-07T11:23:50.451Z,3.80
2023-05-07T11:26:18.538Z,3.50
2023-05-07T11:28:46.523Z,3.37
2023-05-07T11:31:15.046Z,3.70
2023-05-07T11:33:43.416Z,3.63
2023-05-07T11:36:12.903Z,3.70
2023-05-07T11:38:41.326Z,3.80
2023-05-07T11:41:09.268Z,4.10
2023-05-07T11:43:37.775Z,4.20
2023-05-07T11:46:11.095Z,4.07
2023-05-07T11:48:38.998Z,4.47
2023-05-07T11:51:09.846Z,4.37
2023-05-07T11:53:40.314Z,4.07
2023-05-07T11:56:09.310Z,4.67
2023-05-07T11:58:37.279Z,4.50
2023-05-07T12:01:05.756Z,4.60
2023-05-07T12:03:36.401Z,5.17
2023-05-07T12:06:05.522Z,5.07
2023-05-07T12:08:33.257Z,5.00
2023-05-07T12:11:02.704Z,4.90
2023-05-07T12:13:30.495Z,5.73
2023-05-07T12:15:58.246Z,5.30
2023-05-07T12:18:26.426Z,5.50
2023-05-07T12:20:54.330Z,5.07
2023-05-07T12:23:22.467Z,5.40
2023-05-07T12:25:50.966Z,5.50
2023-05-07T12:28:20.404Z,5.80
2023-05-07T12:30:49.253Z,5.50
2023-05-07T12:33:19.472Z,4.90
2023-05-07T12:35:47.412Z,5.40
2023-05-07T12:38:16.524Z,5.30
2023-05-07T12:40:46.040Z,5.63
2023-05-07T12:43:19.051Z,5.30
2023-05-07T12:45:48.591Z,5.10
2023-05-07T12:48:16.692Z,5.77
2023-05-07T12:50:45.566Z,5.37
2023-05-07T12:53:14.109Z,5.23
2023-05-07T12:55:45.476Z,5.10
2023-05-07T12:58:19.307Z,5.37
2023-05-07T13:00:50.137Z,5.27
2023-05-07T13:03:23.472Z,4.83
2023-05-07T13:05:51.366Z,5.63
2023-05-07T13:08:38.800Z,5.07
2023-05-07T13:11:06.615Z,5.33
2023-05-07T13:13:34.628Z,5.30
2023-05-07T13:16:03.761Z,5.23
2023-05-07T13:18:32.037Z,4.50
2023-05-07T13:21:00.458Z,5.07
2023-05-07T13:23:28.257Z,4.60
2023-05-07T13:25:56.912Z,5.10
2023-05-07T13:28:25.182Z,4.90
2023-05-07T13:30:53.714Z,5.53
2023-05-07T13:33:22.935Z,4.60
2023-05-07T13:35:50.783Z,4.53
2023-05-07T13:38:19.085Z,4.83
2023-05-07T13:40:47.391Z,4.83
2023-05-07T13:43:18.578Z,4.50
2023-05-07T13:45:46.658Z,4.93
2023-05-07T13:48:14.732Z,4.13
2023-05-07T13:50:44.305Z,4.53
2023-05-07T13:53:12.431Z,4.43
2023-05-07T13:55:41.026Z,4.43
2023-05-07T13:58:08.942Z,4.13
2023-05-07T14:00:37.329Z,4.10
2023-05-07T14:03:05.537Z,4.80
2023-05-07T14:05:33.494Z,4.50
2023-05-07T14:08:03.717Z,3.97
2023-05-07T14:10:32.796Z,4.30
2023-05-07T14:13:00.701Z,4.27
2023-05-07T14:15:28.684Z,3.67
2023-05-07T14:17:58.691Z,3.93
2023-05-07T14:20:26.858Z,4.80
2023-05-07T14:22:55.680Z,4.50
2023-05-07T14:25:26.246Z,4.23
2023-05-07T14:27:54.175Z,4.00
2023-05-07T14:30:23.884Z,4.27
2023-05-07T14:32:51.870Z,3.90
2023-05-07T14:35:19.857Z,3.80
2023-05-07T14:37:47.646Z,3.90
2023-05-07T14:40:15.708Z,3.80
2023-05-07T14:42:44.807Z,4.53
2023-05-07T14:45:13.257Z,4.60
2023-05-07T14:47:43.447Z,4.00
2023-05-07T14:50:11.865Z,4.47
2023-05-07T14:52:39.893Z,4.03
2023-05-07T14:55:08.491Z,4.40
2023-05-07T14:57:36.531Z,3.80
2023-05-07T15:00:08.096Z,4.30
2023-05-07T15:02:36.696Z,4.33
2023-05-07T15:05:04.760Z,3.90
2023-05-07T15:07:33.724Z,3.80
2023-05-07T15:10:02.075Z,4.10
2023-05-07T15:12:30.422Z,4.10
2023-05-07T15:14:58.754Z,4.10
2023-05-07T15:17:28.320Z,4.10
2023-05-07T15:19:56.630Z,4.60
2023-05-07T15:22:24.905Z,3.70
2023-05-07T15:24:52.865Z,4.53
2023-05-07T15:27:21.137Z,4.70
2023-05-07T15:29:49.064Z,3.97
2023-05-07T15:32:17.012Z,4.20
2023-05-07T15:34:46.303Z,4.33
2023-05-07T15:37:14.227Z,4.20
2023-05-07T15:39:42.607Z,4.50
2023-05-07T15:42:10.419Z,4.40
2023-05-07T15:44:38.637Z,4.17
2023-05-07T15:47:06.376Z,3.73
2023-05-07T15:49:34.929Z,4.07
2023-05-07T15:52:15.934Z,4.30
2023-05-07T15:54:43.874Z,4.10
2023-05-07T15:57:12.475Z,4.23
2023-05-07T15:59:40.421Z,4.30
2023-05-07T16:02:08.983Z,3.90
2023-05-07T16:04:37.301Z,4.40
2023-05-07T16:07:06.686Z,4.20
2023-05-07T16:09:35.127Z,3.60
2023-05-07T16:12:03.192Z,4.57
2023-05-07T16:14:31.653Z,4.33
2023-05-07T16:16:59.728Z,4.00
2023-05-07T16:19:28.837Z,4.27
2023-05-07T16:21:57.038Z,4.33
2023-05-07T16:24:26.858Z,4.17
2023-05-07T16:26:54.731Z,4.50
2023-05-07T16:29:23.225Z,4.40
2023-05-07T16:31:51.115Z,4.20
2023-05-07T16:34:18.946Z,4.73
2023-05-07T16:36:46.881Z,4.47
2023-05-07T16:39:14.753Z,4.20
2023-05-07T16:41:44.315Z,4.63
2023-05-07T16:44:12.696Z,4.40
2023-05-07T16:46:40.655Z,4.70
2023-05-07T16:49:08.995Z,4.20
2023-05-07T16:51:36.973Z,4.13
2023-05-07T16:54:05.038Z,4.97
2023-05-07T16:56:32.917Z,4.33
2023-05-07T16:59:02.410Z,4.67
2023-05-07T17:01:33.026Z,4.77
2023-05-07T17:04:01.099Z,4.40
2023-05-07T17:06:29.236Z,4.80
2023-05-07T17:08:57.175Z,4.87
2023-05-07T17:11:27.451Z,4.80
2023-05-07T17:13:56.259Z,4.60
2023-05-07T17:16:25.708Z,4.37
2023-05-07T17:18:54.297Z,4.43
2023-05-07T17:21:22.123Z,4.70
2023-05-07T17:23:50.474Z,4.70
2023-05-07T17:26:18.360Z,4.57
2023-05-07T17:28:48.761Z,4.73
2023-05-07T17:31:16.822Z,4.70
2023-05-07T17:33:46.535Z,4.70
2023-05-07T17:36:14.558Z,5.03
2023-05-07T17:38:42.960Z,5.03
2023-05-07T17:41:10.735Z,4.90
2023-05-07T17:43:38.922Z,5.10
2023-05-07T17:46:06.652Z,5.63
2023-05-07T17:48:34.805Z,5.03
2023-05-07T17:51:03.949Z,4.90
2023-05-07T17:53:32.157Z,4.80
2023-05-07T17:56:06.813Z,4.70
2023-05-07T17:58:39.160Z,4.93
2023-05-07T18:01:22.762Z,5.20
2023-05-07T18:03:51.427Z,4.80
2023-05-07T18:06:22.674Z,5.07
2023-05-07T18:08:50.581Z,4.83
2023-05-07T18:11:18.715Z,5.10
2023-05-07T18:13:47.171Z,4.90
2023-05-07T18:16:16.310Z,4.67
2023-05-07T18:18:44.228Z,4.57
2023-05-07T18:21:18.653Z,5.30
2023-05-07T18:23:48.591Z,5.00
2023-05-07T18:26:16.692Z,5.00
2023-05-07T18:28:46.334Z,4.73
2023-05-07T18:31:14.473Z,4.77
2023-05-07T18:33:42.545Z,4.87
2023-05-07T18:36:10.599Z,5.40
2023-05-07T18:38:39.089Z,5.57
2023-05-07T18:41:08.571Z,5.33
2023-05-07T18:43:42.653Z,5.73
2023-05-07T18:46:11.208Z,5.30
2023-05-07T18:48:39.217Z,5.67
2023-05-07T18:51:08.520Z,5.30
2023-05-07T18:53:36.601Z,5.23
2023-05-07T18:56:06.542Z,5.50
2023-05-07T18:58:36.193Z,5.20
2023-05-07T19:01:08.146Z,4.80
2023-05-07T19:03:36.680Z,4.70
2023-05-07T19:06:05.990Z,5.07
2023-05-07T19:08:34.114Z,4.93
2023-05-07T19:11:02.249Z,5.70
2023-05-07T19:13:38.205Z,5.43
2023-05-07T19:16:10.415Z,5.00
2023-05-07T19:18:38.717Z,4.93
2023-05-07T19:21:06.948Z,5.57
2023-05-07T19:23:37.161Z,4.97
2023-05-07T19:26:05.633Z,5.20
2023-05-07T19:28:33.409Z,5.67
2023-05-07T19:31:01.470Z,4.70
2023-05-07T19:33:31.504Z,5.23
2023-05-07T19:36:00.539Z,4.93
2023-05-07T19:38:28.962Z,4.57
2023-05-07T19:40:58.157Z,5.13
2023-05-07T19:43:26.124Z,4.83
2023-05-07T19:45:55.079Z,5.30
2023-05-07T19:48:23.492Z,4.40
2023-05-07T19:50:53.139Z,4.90
2023-05-07T19:53:21.095Z,5.63
2023-05-07T19:55:49.032Z,5.30
2023-05-07T19:58:17.233Z,5.30
2023-05-07T20:00:45.569Z,5.30
2023-05-07T20:03:18.636Z,6.20
2023-05-07T20:05:47.315Z,5.80
2023-05-07T20:08:17.046Z,5.27
2023-05-07T20:10:45.551Z,6.70
2023-05-07T20:13:14.079Z,5.53
2023-05-07T20:15:42.371Z,6.10
2023-05-07T20:18:10.437Z,5.10
2023-05-07T20:20:38.547Z,6.03
2023-05-07T20:23:12.396Z,5.73
2023-05-07T20:25:43.579Z,5.93
2023-05-07T20:28:11.619Z,5.87
2023-05-07T20:30:39.581Z,6.00
2023-05-07T20:33:08.390Z,5.90
2023-05-07T20:35:36.494Z,5.67
2023-05-07T20:38:04.509Z,5.30
2023-05-07T20:40:35.042Z,5.77
2023-05-07T20:43:05.231Z,5.70
2023-05-07T20:45:33.421Z,5.90
2023-05-07T20:48:01.949Z,5.20
2023-05-07T20:50:30.500Z,5.40
2023-05-07T20:52:58.573Z,5.43
2023-05-07T20:55:27.012Z,5.70
2023-05-07T20:57:55.081Z,5.80
2023-05-07T21:00:24.848Z,5.00
2023-05-07T21:02:53.307Z,4.83
2023-05-07T21:05:21.774Z,5.57
2023-05-07T21:07:50.063Z,5.30
2023-05-07T21:10:18.165Z,5.40
2023-05-07T21:12:46.298Z,5.10
2023-05-07T21:15:14.322Z,5.27
2023-05-07T21:17:43.858Z,5.73
2023-05-07T21:20:12.444Z,5.37
2023-05-07T21:22:40.684Z,5.33
2023-05-07T21:25:10.121Z,5.60
2023-05-07T21:27:39.229Z,5.30
2023-05-07T21:30:08.586Z,5.10
2023-05-07T21:32:36.563Z,5.47
2023-05-07T21:35:06.932Z,5.30
2023-05-07T21:37:34.910Z,4.97
2023-05-07T21:40:02.936Z,5.10
2023-05-07T21:42:30.981Z,4.80
2023-05-07T21:44:58.963Z,4.83
2023-05-07T21:47:27.320Z,5.03
2023-05-07T21:49:55.372Z,5.20
2023-05-07T21:52:26.154Z,5.30
2023-05-07T21:54:54.280Z,5.63
2023-05-07T21:57:22.204Z,5.17
2023-05-07T21:59:50.319Z,5.30
2023-05-07T22:02:18.279Z,5.43
2023-05-07T22:04:46.454Z,4.80
2023-05-07T22:07:14.410Z,5.30
2023-05-07T22:09:43.946Z,5.13
2023-05-07T22:12:12.281Z,5.13
2023-05-07T22:14:40.284Z,4.90
2023-05-07T22:17:08.663Z,4.63
2023-05-07T22:19:36.599Z,4.77
2023-05-07T22:22:04.649Z,5.10
2023-05-07T22:24:32.676Z,5.03
2023-05-07T22:27:02.099Z,4.37
2023-05-07T22:29:30.384Z,4.40
2023-05-07T22:31:58.246Z,4.70
2023-05-07T22:34:26.364Z,4.50
2023-05-07T22:36:54.043Z,4.97
2023-05-07T22:39:22.141Z,4.87
2023-05-07T22:41:50.815Z,4.28
2023-05-07T22:44:20.035Z,4.87
2023-05-07T22:46:49.726Z,4.77
2023-05-07T22:49:17.608Z,4.27
2023-05-07T22:51:45.644Z,5.37
2023-05-07T22:54:13.912Z,4.60
2023-05-07T22:56:42.003Z,4.40
2023-05-07T22:59:09.940Z,4.70
2023-05-07T23:01:39.024Z,4.60
2023-05-07T23:04:07.393Z,4.50
2023-05-07T23:06:35.072Z,5.03
2023-05-07T23:09:03.387Z,4.67
2023-05-07T23:11:31.457Z,4.57
2023-05-07T23:13:59.698Z,4.40
2023-05-07T23:16:28.746Z,5.00
2023-05-07T23:18:58.071Z,5.00
2023-05-07T23:21:26.067Z,5.17
2023-05-07T23:23:54.210Z,4.87
2023-05-07T23:26:22.105Z,4.40
2023-05-07T23:28:50.346Z,4.83
2023-05-07T23:31:18.224Z,4.67
2023-05-07T23:33:46.525Z,4.57
2023-05-07T23:36:15.997Z,4.80
2023-05-07T23:38:43.947Z,5.00
2023-05-07T23:41:11.709Z,4.43
2023-05-07T23:43:39.370Z,8.00
2023-05-07T23:46:07.146Z,9.47
2023-05-07T23:48:34.874Z,12.50
2023-05-07T23:51:03.405Z,11.80
2023-05-07T23:53:32.736Z,13.10
2023-05-07T23:56:00.697Z,13.50
2023-05-07T23:58:29.010Z,13.07
